Terminal Aerodrome Forecast
Issued by NWS

Home | Current Version | Previous Version | Graphics & Text | Print | Product List | Glossary On
Versions: 1 2 3 4 5 6 7 8 9 10 11 12 13 14 15 16 17 18 19
000
FTUS43 KTOP 242300
TAFFOE
TAF
KFOE 242335Z 2500/2524 18010KT P6SM VCSH SCT025 BKN090
     FM250600 22006KT P6SM BKN020
     FM251300 18013KT P6SM VCSH SCT012 BKN050
     FM251800 18016G26KT P6SM BKN050=

USA.gov is the U.S. government's official web portal to all federal, state and local government web resources and services.